sensor_id;sensor_type;location;lat;lon;timestamp;pressure;altitude;pressure_sealevel;temperature;humidity
14204;BME280;7185;51.854;6.622;2023-01-31T00:01:12;102088.47;;;3.80;100.00
14204;BME280;7185;51.854;6.622;2023-01-31T00:03:44;102090.34;;;3.85;100.00
14204;BME280;7185;51.854;6.622;2023-01-31T00:06:18;102098.97;;;3.83;100.00
14204;BME280;7185;51.854;6.622;2023-01-31T00:08:53;102098.34;;;3.91;100.00
14204;BME280;7185;51.854;6.622;2023-01-31T00:11:26;102092.41;;;3.95;100.00
14204;BME280;7185;51.854;6.622;2023-01-31T00:13:59;102090.84;;;4.00;100.00
14204;BME280;7185;51.854;6.622;2023-01-31T00:16:32;102083.25;;;4.06;100.00
14204;BME280;7185;51.854;6.622;2023-01-31T00:19:04;102093.00;;;4.13;100.00
14204;BME280;7185;51.854;6.622;2023-01-31T00:21:35;102101.63;;;4.12;100.00
14204;BME280;7185;51.854;6.622;2023-01-31T00:24:11;102105.00;;;4.10;100.00
14204;BME280;7185;51.854;6.622;2023-01-31T00:26:42;102110.19;;;4.10;100.00
14204;BME280;7185;51.854;6.622;2023-01-31T00:29:14;102107.41;;;4.04;100.00
14204;BME280;7185;51.854;6.622;2023-01-31T00:31:46;102091.75;;;4.01;100.00
14204;BME280;7185;51.854;6.622;2023-01-31T00:34:17;102100.09;;;3.92;100.00
14204;BME280;7185;51.854;6.622;2023-01-31T00:36:49;102094.69;;;3.86;100.00
14204;BME280;7185;51.854;6.622;2023-01-31T00:39:22;102093.63;;;3.79;100.00
14204;BME280;7185;51.854;6.622;2023-01-31T00:41:53;102094.13;;;3.69;100.00
14204;BME280;7185;51.854;6.622;2023-01-31T00:44:25;102108.69;;;3.65;100.00
14204;BME280;7185;51.854;6.622;2023-01-31T00:46:58;102099.88;;;3.60;100.00
14204;BME280;7185;51.854;6.622;2023-01-31T00:49:30;102106.72;;;3.58;100.00
14204;BME280;7185;51.854;6.622;2023-01-31T00:52:01;102098.03;;;3.56;100.00
14204;BME280;7185;51.854;6.622;2023-01-31T00:54:34;102099.50;;;3.49;100.00
14204;BME280;7185;51.854;6.622;2023-01-31T00:57:06;102096.06;;;3.48;100.00
14204;BME280;7185;51.854;6.622;2023-01-31T00:59:37;102097.56;;;3.43;100.00
14204;BME280;7185;51.854;6.622;2023-01-31T01:02:09;102079.25;;;3.39;100.00
14204;BME280;7185;51.854;6.622;2023-01-31T01:04:41;102089.63;;;3.39;100.00
14204;BME280;7185;51.854;6.622;2023-01-31T01:07:12;102080.94;;;3.37;100.00
14204;BME280;7185;51.854;6.622;2023-01-31T01:09:45;102080.50;;;3.24;100.00
14204;BME280;7185;51.854;6.622;2023-01-31T01:12:17;102089.22;;;3.26;100.00
14204;BME280;7185;51.854;6.622;2023-01-31T01:14:48;102089.00;;;3.20;100.00
14204;BME280;7185;51.854;6.622;2023-01-31T01:17:20;102086.22;;;3.15;100.00
14204;BME280;7185;51.854;6.622;2023-01-31T01:19:52;102086.31;;;3.17;100.00
14204;BME280;7185;51.854;6.622;2023-01-31T01:22:24;102092.19;;;3.13;100.00
14204;BME280;7185;51.854;6.622;2023-01-31T01:24:57;102086.22;;;3.15;100.00
14204;BME280;7185;51.854;6.622;2023-01-31T01:27:28;102088.91;;;3.17;100.00
14204;BME280;7185;51.854;6.622;2023-01-31T01:30:00;102101.69;;;3.12;100.00
14204;BME280;7185;51.854;6.622;2023-01-31T01:32:32;102076.63;;;3.13;100.00
14204;BME280;7185;51.854;6.622;2023-01-31T01:35:04;102092.97;;;3.10;100.00
14204;BME280;7185;51.854;6.622;2023-01-31T01:37:36;102095.50;;;3.09;100.00
14204;BME280;7185;51.854;6.622;2023-01-31T01:40:10;102083.41;;;3.09;100.00
14204;BME280;7185;51.854;6.622;2023-01-31T01:45:14;102084.38;;;3.11;100.00
14204;BME280;7185;51.854;6.622;2023-01-31T01:47:49;102080.03;;;3.12;100.00
14204;BME280;7185;51.854;6.622;2023-01-31T01:50:26;102091.97;;;3.07;100.00
14204;BME280;7185;51.854;6.622;2023-01-31T01:53:02;102088.56;;;3.08;100.00
14204;BME280;7185;51.854;6.622;2023-01-31T01:55:40;102088.66;;;3.11;100.00
14204;BME280;7185;51.854;6.622;2023-01-31T01:58:15;102096.28;;;3.06;100.00
14204;BME280;7185;51.854;6.622;2023-01-31T02:00:49;102098.78;;;3.05;100.00
14204;BME280;7185;51.854;6.622;2023-01-31T02:03:21;102106.69;;;3.08;100.00
14204;BME280;7185;51.854;6.622;2023-01-31T02:05:55;102101.47;;;3.06;100.00
14204;BME280;7185;51.854;6.622;2023-01-31T02:08:31;102104.69;;;3.00;100.00
14204;BME280;7185;51.854;6.622;2023-01-31T02:11:07;102113.34;;;3.01;100.00
14204;BME280;7185;51.854;6.622;2023-01-31T02:13:40;102117.59;;;2.99;100.00
14204;BME280;7185;51.854;6.622;2023-01-31T02:16:12;102124.13;;;2.89;100.00
14204;BME280;7185;51.854;6.622;2023-01-31T02:18:44;102120.59;;;2.87;100.00
14204;BME280;7185;51.854;6.622;2023-01-31T02:21:42;102116.53;;;2.94;100.00
14204;BME280;7185;51.854;6.622;2023-01-31T02:24:56;102113.88;;;2.92;100.00
14204;BME280;7185;51.854;6.622;2023-01-31T02:31:01;102109.69;;;2.96;100.00
14204;BME280;7185;51.854;6.622;2023-01-31T02:33:43;102108.06;;;2.98;100.00
14204;BME280;7185;51.854;6.622;2023-01-31T02:36:28;102104.47;;;2.94;100.00
14204;BME280;7185;51.854;6.622;2023-01-31T02:39:12;102090.63;;;2.94;100.00
14204;BME280;7185;51.854;6.622;2023-01-31T02:41:52;102100.13;;;2.93;100.00
14204;BME280;7185;51.854;6.622;2023-01-31T02:44:29;102103.41;;;2.89;100.00
14204;BME280;7185;51.854;6.622;2023-01-31T02:47:31;102104.97;;;2.85;100.00
14204;BME280;7185;51.854;6.622;2023-01-31T02:50:11;102107.72;;;2.89;100.00
14204;BME280;7185;51.854;6.622;2023-01-31T02:52:47;102113.03;;;2.92;100.00
14204;BME280;7185;51.854;6.622;2023-01-31T02:55:23;102104.28;;;2.90;100.00
14204;BME280;7185;51.854;6.622;2023-01-31T02:58:16;102103.75;;;2.98;100.00
14204;BME280;7185;51.854;6.622;2023-01-31T03:00:48;102096.03;;;3.00;100.00
14204;BME280;7185;51.854;6.622;2023-01-31T03:03:24;102091.09;;;3.06;100.00
14204;BME280;7185;51.854;6.622;2023-01-31T03:09:02;102077.53;;;3.13;100.00
14204;BME280;7185;51.854;6.622;2023-01-31T03:11:41;102078.56;;;3.18;100.00
14204;BME280;7185;51.854;6.622;2023-01-31T03:14:22;102066.59;;;3.22;100.00
14204;BME280;7185;51.854;6.622;2023-01-31T03:17:01;102065.25;;;3.33;100.00
14204;BME280;7185;51.854;6.622;2023-01-31T03:20:03;102068.81;;;3.35;100.00
14204;BME280;7185;51.854;6.622;2023-01-31T03:22:37;102066.16;;;3.34;100.00
14204;BME280;7185;51.854;6.622;2023-01-31T03:25:14;102048.94;;;3.36;100.00
14204;BME280;7185;51.854;6.622;2023-01-31T03:27:52;102046.81;;;3.50;100.00
14204;BME280;7185;51.854;6.622;2023-01-31T03:30:29;102037.22;;;3.47;100.00
14204;BME280;7185;51.854;6.622;2023-01-31T03:33:07;102037.31;;;3.50;100.00
14204;BME280;7185;51.854;6.622;2023-01-31T03:35:42;102019.38;;;3.57;100.00
14204;BME280;7185;51.854;6.622;2023-01-31T03:38:20;102015.13;;;3.59;100.00
14204;BME280;7185;51.854;6.622;2023-01-31T03:40:59;102020.44;;;3.62;100.00
14204;BME280;7185;51.854;6.622;2023-01-31T03:43:36;102025.03;;;3.71;100.00
14204;BME280;7185;51.854;6.622;2023-01-31T03:46:14;102023.47;;;3.76;100.00
14204;BME280;7185;51.854;6.622;2023-01-31T03:48:50;102023.56;;;3.79;100.00
14204;BME280;7185;51.854;6.622;2023-01-31T03:51:27;102017.59;;;3.81;100.00
14204;BME280;7185;51.854;6.622;2023-01-31T03:54:04;102015.63;;;3.74;100.00
14204;BME280;7185;51.854;6.622;2023-01-31T03:56:39;102017.59;;;3.81;100.00
14204;BME280;7185;51.854;6.622;2023-01-31T03:59:17;102018.88;;;3.94;100.00
14204;BME280;7185;51.854;6.622;2023-01-31T04:01:50;102015.66;;;4.02;100.00
14204;BME280;7185;51.854;6.622;2023-01-31T04:04:27;102020.13;;;4.07;100.00
14204;BME280;7185;51.854;6.622;2023-01-31T04:06:59;102016.81;;;4.11;100.00
14204;BME280;7185;51.854;6.622;2023-01-31T04:09:31;102025.63;;;4.17;100.00
14204;BME280;7185;51.854;6.622;2023-01-31T04:12:05;102024.16;;;4.25;100.00
14204;BME280;7185;51.854;6.622;2023-01-31T04:14:37;102016.38;;;4.25;100.00
14204;BME280;7185;51.854;6.622;2023-01-31T04:17:08;102005.22;;;4.29;100.00
14204;BME280;7185;51.854;6.622;2023-01-31T04:19:40;102008.81;;;4.34;100.00
14204;BME280;7185;51.854;6.622;2023-01-31T04:22:11;102007.09;;;4.33;100.00
14204;BME280;7185;51.854;6.622;2023-01-31T04:24:43;102007.16;;;4.36;100.00
14204;BME280;7185;51.854;6.622;2023-01-31T04:27:16;102003.84;;;4.40;100.00
14204;BME280;7185;51.854;6.622;2023-01-31T04:29:48;102000.28;;;4.37;100.00
14204;BME280;7185;51.854;6.622;2023-01-31T04:32:19;101995.13;;;4.38;100.00
14204;BME280;7185;51.854;6.622;2023-01-31T04:34:51;101995.19;;;4.41;100.00
14204;BME280;7185;51.854;6.622;2023-01-31T04:37:22;101990.25;;;4.49;100.00
14204;BME280;7185;51.854;6.622;2023-01-31T04:39:54;101986.69;;;4.45;100.00
14204;BME280;7185;51.854;6.622;2023-01-31T04:42:27;101992.88;;;4.51;100.00
14204;BME280;7185;51.854;6.622;2023-01-31T04:44:58;101988.63;;;4.53;100.00
14204;BME280;7185;51.854;6.622;2023-01-31T04:47:30;101986.75;;;4.49;100.00
14204;BME280;7185;51.854;6.622;2023-01-31T04:50:02;101986.56;;;4.42;100.00
14204;BME280;7185;51.854;6.622;2023-01-31T04:52:34;101990.19;;;4.47;100.00
14204;BME280;7185;51.854;6.622;2023-01-31T04:55:07;101989.28;;;4.45;100.00
14204;BME280;7185;51.854;6.622;2023-01-31T04:57:40;101979.78;;;4.47;100.00
14204;BME280;7185;51.854;6.622;2023-01-31T05:00:12;101977.34;;;4.52;100.00
14204;BME280;7185;51.854;6.622;2023-01-31T05:02:44;101976.53;;;4.55;100.00
14204;BME280;7185;51.854;6.622;2023-01-31T05:05:16;101979.09;;;4.53;100.00
14204;BME280;7185;51.854;6.622;2023-01-31T05:07:47;101983.34;;;4.51;100.00
14204;BME280;7185;51.854;6.622;2023-01-31T05:10:19;101979.06;;;4.52;100.00
14204;BME280;7185;51.854;6.622;2023-01-31T05:12:52;101973.91;;;4.53;100.00
14204;BME280;7185;51.854;6.622;2023-01-31T05:15:25;101959.25;;;4.55;100.00
14204;BME280;7185;51.854;6.622;2023-01-31T05:17:57;101958.34;;;4.55;100.00
14204;BME280;7185;51.854;6.622;2023-01-31T05:20:34;101946.00;;;4.46;100.00
14204;BME280;7185;51.854;6.622;2023-01-31T05:23:09;101943.66;;;4.55;100.00
14204;BME280;7185;51.854;6.622;2023-01-31T05:25:40;101943.63;;;4.54;100.00
14204;BME280;7185;51.854;6.622;2023-01-31T05:28:13;101945.28;;;4.52;100.00
14204;BME280;7185;51.854;6.622;2023-01-31T05:30:45;101944.47;;;4.53;100.00
14204;BME280;7185;51.854;6.622;2023-01-31T05:33:16;101936.75;;;4.56;100.00
14204;BME280;7185;51.854;6.622;2023-01-31T05:35:49;101924.50;;;4.52;100.00
14204;BME280;7185;51.854;6.622;2023-01-31T05:38:21;101924.69;;;4.58;100.00
14204;BME280;7185;51.854;6.622;2023-01-31T05:40:53;101923.19;;;4.66;100.00
14204;BME280;7185;51.854;6.622;2023-01-31T05:43:26;101916.38;;;4.71;100.00
14204;BME280;7185;51.854;6.622;2023-01-31T05:45:57;101921.50;;;4.68;100.00
14204;BME280;7185;51.854;6.622;2023-01-31T05:48:29;101916.38;;;4.71;100.00
14204;BME280;7185;51.854;6.622;2023-01-31T05:51:00;101917.72;;;4.57;100.00
14204;BME280;7185;51.854;6.622;2023-01-31T05:53:32;101912.91;;;4.71;100.00
14204;BME280;7185;51.854;6.622;2023-01-31T05:56:04;101901.75;;;4.75;100.00
14204;BME280;7185;51.854;6.622;2023-01-31T05:58:37;101916.31;;;4.68;100.00
14204;BME280;7185;51.854;6.622;2023-01-31T06:01:09;101920.06;;;4.79;100.00
14204;BME280;7185;51.854;6.622;2023-01-31T06:03:41;101934.59;;;4.73;100.00
14204;BME280;7185;51.854;6.622;2023-01-31T06:06:13;101916.72;;;4.84;100.00
14204;BME280;7185;51.854;6.622;2023-01-31T06:08:44;101920.84;;;4.75;100.00
14204;BME280;7185;51.854;6.622;2023-01-31T06:11:16;101911.34;;;4.77;100.00
14204;BME280;7185;51.854;6.622;2023-01-31T06:13:49;101902.72;;;4.78;100.00
14204;BME280;7185;51.854;6.622;2023-01-31T06:16:21;101895.75;;;4.77;100.00
14204;BME280;7185;51.854;6.622;2023-01-31T06:18:52;101899.38;;;4.83;100.00
14204;BME280;7185;51.854;6.622;2023-01-31T06:21:24;101898.41;;;4.79;100.00
14204;BME280;7185;51.854;6.622;2023-01-31T06:23:57;101905.31;;;4.78;100.00
14204;BME280;7185;51.854;6.622;2023-01-31T06:26:28;101917.66;;;4.87;100.00
14204;BME280;7185;51.854;6.622;2023-01-31T06:29:01;101918.41;;;4.82;100.00
14204;BME280;7185;51.854;6.622;2023-01-31T06:31:33;101910.81;;;4.89;100.00
14204;BME280;7185;51.854;6.622;2023-01-31T06:34:05;101919.25;;;4.81;100.00
14204;BME280;7185;51.854;6.622;2023-01-31T06:36:36;101911.75;;;4.93;100.00
14204;BME280;7185;51.854;6.622;2023-01-31T06:39:09;101908.00;;;4.82;100.00
14204;BME280;7185;51.854;6.622;2023-01-31T06:41:41;101904.50;;;4.81;100.00
14204;BME280;7185;51.854;6.622;2023-01-31T06:44:14;101908.22;;;4.91;100.00
14204;BME280;7185;51.854;6.622;2023-01-31T06:46:45;101911.00;;;4.97;100.00
14204;BME280;7185;51.854;6.622;2023-01-31T06:49:17;101906.41;;;4.87;100.00
14204;BME280;7185;51.854;6.622;2023-01-31T06:51:48;101902.03;;;4.86;100.00
14204;BME280;7185;51.854;6.622;2023-01-31T06:54:20;101906.56;;;4.93;100.00
14204;BME280;7185;51.854;6.622;2023-01-31T06:56:51;101904.69;;;4.87;100.00
14204;BME280;7185;51.854;6.622;2023-01-31T06:59:24;101905.03;;;5.01;100.00
14204;BME280;7185;51.854;6.622;2023-01-31T07:01:56;101907.78;;;5.06;100.00
14204;BME280;7185;51.854;6.622;2023-01-31T07:04:28;101906.84;;;5.04;100.00
14204;BME280;7185;51.854;6.622;2023-01-31T07:06:59;101906.97;;;5.08;100.00
14204;BME280;7185;51.854;6.622;2023-01-31T07:09:31;101896.63;;;5.11;100.00
14204;BME280;7185;51.854;6.622;2023-01-31T07:12:03;101896.56;;;5.08;100.00
14204;BME280;7185;51.854;6.622;2023-01-31T07:14:36;101896.13;;;5.25;100.00
14204;BME280;7185;51.854;6.622;2023-01-31T07:17:08;101894.22;;;5.18;100.00
14204;BME280;7185;51.854;6.622;2023-01-31T07:19:40;101890.41;;;5.05;100.00
14204;BME280;7185;51.854;6.622;2023-01-31T07:22:11;101891.38;;;5.08;100.00
14204;BME280;7185;51.854;6.622;2023-01-31T07:24:43;101894.00;;;5.10;100.00
14204;BME280;7185;51.854;6.622;2023-01-31T07:27:15;101887.19;;;5.15;100.00
14204;BME280;7185;51.854;6.622;2023-01-31T07:29:48;101879.59;;;5.23;100.00
14204;BME280;7185;51.854;6.622;2023-01-31T07:32:19;101877.75;;;5.19;100.00
14204;BME280;7185;51.854;6.622;2023-01-31T07:34:51;101878.75;;;5.24;100.00
14204;BME280;7185;51.854;6.622;2023-01-31T07:37:22;101874.81;;;5.05;100.00
14204;BME280;7185;51.854;6.622;2023-01-31T07:39:54;101883.69;;;5.13;100.00
14204;BME280;7185;51.854;6.622;2023-01-31T07:42:27;101863.06;;;5.21;100.00
14204;BME280;7185;51.854;6.622;2023-01-31T07:45:00;101883.13;;;5.25;100.00
14204;BME280;7185;51.854;6.622;2023-01-31T07:47:31;101877.97;;;5.28;100.00
14204;BME280;7185;51.854;6.622;2023-01-31T07:50:03;101876.28;;;5.30;100.00
14204;BME280;7185;51.854;6.622;2023-01-31T07:52:35;101876.34;;;5.33;100.00
14204;BME280;7185;51.854;6.622;2023-01-31T07:55:07;101865.63;;;5.19;100.00
14204;BME280;7185;51.854;6.622;2023-01-31T07:57:39;101863.91;;;5.20;100.00
14204;BME280;7185;51.854;6.622;2023-01-31T08:00:14;101849.22;;;5.22;100.00
14204;BME280;7185;51.854;6.622;2023-01-31T08:02:59;101853.69;;;5.28;100.00
14204;BME280;7185;51.854;6.622;2023-01-31T08:05:48;101848.38;;;5.23;100.00
14204;BME280;7185;51.854;6.622;2023-01-31T08:08:20;101835.63;;;5.34;100.00
14204;BME280;7185;51.854;6.622;2023-01-31T08:10:52;101843.38;;;5.32;100.00
14204;BME280;7185;51.854;6.622;2023-01-31T08:13:23;101827.06;;;5.39;100.00
14204;BME280;7185;51.854;6.622;2023-01-31T08:15:57;101832.13;;;5.33;100.00
14204;BME280;7185;51.854;6.622;2023-01-31T08:18:29;101834.13;;;5.43;100.00
14204;BME280;7185;51.854;6.622;2023-01-31T08:21:01;101830.44;;;5.34;100.00
14204;BME280;7185;51.854;6.622;2023-01-31T08:23:33;101826.44;;;5.50;100.00
14204;BME280;7185;51.854;6.622;2023-01-31T08:26:10;101826.03;;;5.31;100.00
14204;BME280;7185;51.854;6.622;2023-01-31T08:28:42;101807.22;;;5.43;100.00
14204;BME280;7185;51.854;6.622;2023-01-31T08:31:17;101819.63;;;5.55;100.00
14204;BME280;7185;51.854;6.622;2023-01-31T08:33:49;101816.31;;;5.62;100.00
14204;BME280;7185;51.854;6.622;2023-01-31T08:36:23;101805.78;;;5.56;100.00
14204;BME280;7185;51.854;6.622;2023-01-31T08:38:56;101812.59;;;5.51;100.00
14204;BME280;7185;51.854;6.622;2023-01-31T08:41:28;101816.31;;;5.62;100.00
14204;BME280;7185;51.854;6.622;2023-01-31T08:44:00;101800.91;;;5.71;100.00
14204;BME280;7185;51.854;6.622;2023-01-31T08:46:35;101798.16;;;5.64;100.00
14204;BME280;7185;51.854;6.622;2023-01-31T08:49:07;101800.91;;;5.71;100.00
14204;BME280;7185;51.854;6.622;2023-01-31T08:51:40;101806.09;;;5.71;100.00
14204;BME280;7185;51.854;6.622;2023-01-31T08:54:12;101797.50;;;5.75;100.00
14204;BME280;7185;51.854;6.622;2023-01-31T08:56:44;101789.59;;;5.71;100.00
14204;BME280;7185;51.854;6.622;2023-01-31T08:59:16;101789.06;;;5.86;100.00
14204;BME280;7185;51.854;6.622;2023-01-31T09:01:49;101788.75;;;5.70;100.00
14204;BME280;7185;51.854;6.622;2023-01-31T09:04:20;101778.56;;;5.83;100.00
14204;BME280;7185;51.854;6.622;2023-01-31T09:06:52;101779.47;;;5.83;100.00
14204;BME280;7185;51.854;6.622;2023-01-31T09:09:24;101779.47;;;5.83;100.00
14204;BME280;7185;51.854;6.622;2023-01-31T09:11:56;101771.91;;;5.97;100.00
14204;BME280;7185;51.854;6.622;2023-01-31T09:14:28;101770.38;;;6.05;100.00
14204;BME280;7185;51.854;6.622;2023-01-31T09:17:01;101768.66;;;6.06;100.00
14204;BME280;7185;51.854;6.622;2023-01-31T09:19:36;101766.09;;;6.09;100.00
14204;BME280;7185;51.854;6.622;2023-01-31T09:22:08;101775.59;;;6.05;100.00
14204;BME280;7185;51.854;6.622;2023-01-31T09:24:40;101769.31;;;5.97;100.00
14204;BME280;7185;51.854;6.622;2023-01-31T09:27:12;101775.19;;;5.87;100.00
14204;BME280;7185;51.854;6.622;2023-01-31T09:29:44;101760.47;;;5.89;100.00
14204;BME280;7185;51.854;6.622;2023-01-31T09:32:17;101753.06;;;6.08;100.00
14204;BME280;7185;51.854;6.622;2023-01-31T09:34:50;101758.31;;;6.11;100.00
14204;BME280;7185;51.854;6.622;2023-01-31T09:37:22;101760.16;;;6.15;100.00
14204;BME280;7185;51.854;6.622;2023-01-31T09:39:56;101759.34;;;6.20;100.00
14204;BME280;7185;51.854;6.622;2023-01-31T09:42:34;101745.59;;;6.28;100.00
14204;BME280;7185;51.854;6.622;2023-01-31T09:45:11;101751.38;;;6.10;100.00
14204;BME280;7185;51.854;6.622;2023-01-31T09:47:48;101748.84;;;6.14;100.00
14204;BME280;7185;51.854;6.622;2023-01-31T09:50:22;101740.16;;;6.14;100.00
14204;BME280;7185;51.854;6.622;2023-01-31T09:52:57;101753.06;;;6.06;100.00
14204;BME280;7185;51.854;6.622;2023-01-31T09:55:36;101751.41;;;6.13;100.00
14204;BME280;7185;51.854;6.622;2023-01-31T09:58:19;101747.88;;;6.08;100.00
14204;BME280;7185;51.854;6.622;2023-01-31T10:01:04;101746.44;;;6.25;100.00
14204;BME280;7185;51.854;6.622;2023-01-31T10:03:56;101747.66;;;6.46;100.00
14204;BME280;7185;51.854;6.622;2023-01-31T10:06:33;101757.03;;;6.34;100.00
14204;BME280;7185;51.854;6.622;2023-01-31T10:09:09;101758.81;;;6.38;100.00
14204;BME280;7185;51.854;6.622;2023-01-31T10:11:48;101755.22;;;6.30;100.00
14204;BME280;7185;51.854;6.622;2023-01-31T10:14:28;101763.81;;;6.26;100.00
14204;BME280;7185;51.854;6.622;2023-01-31T10:17:06;101757.84;;;6.30;100.00
14204;BME280;7185;51.854;6.622;2023-01-31T10:19:47;101740.59;;;6.38;100.00
14204;BME280;7185;51.854;6.622;2023-01-31T10:22:25;101744.91;;;6.36;100.00
14204;BME280;7185;51.854;6.622;2023-01-31T10:25:00;101744.00;;;6.36;100.00
14204;BME280;7185;51.854;6.622;2023-01-31T10:27:43;101742.19;;;6.30;100.00
14204;BME280;7185;51.854;6.622;2023-01-31T10:30:20;101744.75;;;6.27;100.00
14204;BME280;7185;51.854;6.622;2023-01-31T10:32:58;101752.03;;;6.47;100.00
14204;BME280;7185;51.854;6.622;2023-01-31T10:35:34;101740.72;;;6.46;100.00
14204;BME280;7185;51.854;6.622;2023-01-31T10:38:14;101717.50;;;6.60;100.00
14204;BME280;7185;51.854;6.622;2023-01-31T10:40:52;101724.63;;;6.72;100.00
14204;BME280;7185;51.854;6.622;2023-01-31T10:43:33;101719.41;;;6.70;100.00
14204;BME280;7185;51.854;6.622;2023-01-31T10:46:09;101716.56;;;6.55;100.00
14204;BME280;7185;51.854;6.622;2023-01-31T10:48:43;101721.28;;;6.81;100.00
14204;BME280;7185;51.854;6.622;2023-01-31T10:51:27;101704.59;;;6.68;100.00
14204;BME280;7185;51.854;6.622;2023-01-31T10:54:13;101713.44;;;6.76;100.00
14204;BME280;7185;51.854;6.622;2023-01-31T10:56:50;101702.94;;;6.72;100.00
14204;BME280;7185;51.854;6.622;2023-01-31T10:59:24;101703.81;;;6.74;100.00
14204;BME280;7185;51.854;6.622;2023-01-31T11:01:56;101710.88;;;6.81;100.00
14204;BME280;7185;51.854;6.622;2023-01-31T11:04:29;101715.38;;;6.93;100.00
14204;BME280;7185;51.854;6.622;2023-01-31T11:07:03;101720.59;;;6.91;100.00
14204;BME280;7185;51.854;6.622;2023-01-31T11:09:37;101718.06;;;6.96;100.00
14204;BME280;7185;51.854;6.622;2023-01-31T11:12:10;101707.72;;;7.04;100.00
14204;BME280;7185;51.854;6.622;2023-01-31T11:14:42;101700.06;;;7.14;100.00
14204;BME280;7185;51.854;6.622;2023-01-31T11:17:16;101691.25;;;7.06;100.00
14204;BME280;7185;51.854;6.622;2023-01-31T11:19:50;101691.38;;;7.14;100.00
14204;BME280;7185;51.854;6.622;2023-01-31T11:22:26;101688.78;;;7.15;100.00
14204;BME280;7185;51.854;6.622;2023-01-31T11:25:00;101691.06;;;6.94;100.00
14204;BME280;7185;51.854;6.622;2023-01-31T11:27:37;101677.44;;;7.13;100.00
14204;BME280;7185;51.854;6.622;2023-01-31T11:30:20;101675.88;;;7.26;100.00
14204;BME280;7185;51.854;6.622;2023-01-31T11:32:52;101665.38;;;7.22;100.00
14204;BME280;7185;51.854;6.622;2023-01-31T11:35:26;101667.06;;;7.16;100.00
14204;BME280;7185;51.854;6.622;2023-01-31T11:38:02;101678.47;;;7.26;100.00
14204;BME280;7185;51.854;6.622;2023-01-31T11:40:35;101662.06;;;7.35;100.00
14204;BME280;7185;51.854;6.622;2023-01-31T11:43:25;101674.44;;;7.50;100.00
14204;BME280;7185;51.854;6.622;2023-01-31T11:46:01;101669.09;;;7.44;100.00
14204;BME280;7185;51.854;6.622;2023-01-31T11:48:39;101661.91;;;7.24;100.00
14204;BME280;7185;51.854;6.622;2023-01-31T11:51:23;101661.13;;;7.31;100.00
14204;BME280;7185;51.854;6.622;2023-01-31T11:53:57;101663.81;;;7.38;100.00
14204;BME280;7185;51.854;6.622;2023-01-31T11:56:30;101655.25;;;7.48;100.00
14204;BME280;7185;51.854;6.622;2023-01-31T11:59:05;101645.50;;;7.31;100.00
14204;BME280;7185;51.854;6.622;2023-01-31T12:01:44;101642.09;;;7.40;100.00
14204;BME280;7185;51.854;6.622;2023-01-31T12:04:19;101638.69;;;7.46;100.00
14204;BME280;7185;51.854;6.622;2023-01-31T12:06:58;101629.09;;;7.42;100.00
14204;BME280;7185;51.854;6.622;2023-01-31T12:09:42;101629.94;;;7.41;100.00
14204;BME280;7185;51.854;6.622;2023-01-31T12:12:26;101615.94;;;7.32;100.00
14204;BME280;7185;51.854;6.622;2023-01-31T12:15:01;101619.41;;;7.31;100.00
14204;BME280;7185;51.854;6.622;2023-01-31T12:17:36;101623.75;;;7.31;100.00
14204;BME280;7185;51.854;6.622;2023-01-31T12:20:21;101629.94;;;7.41;100.00
14204;BME280;7185;51.854;6.622;2023-01-31T12:23:01;101628.13;;;7.33;100.00
14204;BME280;7185;51.854;6.622;2023-01-31T12:25:48;101618.44;;;7.23;100.00
14204;BME280;7185;51.854;6.622;2023-01-31T12:28:32;101625.47;;;7.29;100.00
14204;BME280;7185;51.854;6.622;2023-01-31T12:31:22;101617.75;;;7.40;100.00
14204;BME280;7185;51.854;6.622;2023-01-31T12:34:17;101620.22;;;7.27;100.00
14204;BME280;7185;51.854;6.622;2023-01-31T12:37:05;101626.50;;;7.42;100.00
14204;BME280;7185;51.854;6.622;2023-01-31T12:39:53;101622.78;;;7.24;100.00
14204;BME280;7185;51.854;6.622;2023-01-31T12:42:41;101626.22;;;7.20;100.00
14204;BME280;7185;51.854;6.622;2023-01-31T12:45:28;101621.22;;;7.36;100.00
14204;BME280;7185;51.854;6.622;2023-01-31T12:51:25;101624.59;;;7.28;100.00
14204;BME280;7185;51.854;6.622;2023-01-31T12:54:10;101619.22;;;7.16;100.00
14204;BME280;7185;51.854;6.622;2023-01-31T12:56:56;101621.88;;;7.19;100.00
14204;BME280;7185;51.854;6.622;2023-01-31T12:59:41;101620.94;;;7.14;100.00
14204;BME280;7185;51.854;6.622;2023-01-31T13:02:26;101613.97;;;7.14;100.00
14204;BME280;7185;51.854;6.622;2023-01-31T13:05:08;101625.44;;;7.26;100.00
14204;BME280;7185;51.854;6.622;2023-01-31T13:07:45;101618.41;;;7.18;100.00
14204;BME280;7185;51.854;6.622;2023-01-31T13:10:34;101622.72;;;7.18;100.00
14204;BME280;7185;51.854;6.622;2023-01-31T13:13:11;101626.13;;;7.12;100.00
14204;BME280;7185;51.854;6.622;2023-01-31T13:15:51;101621.78;;;7.13;100.00
14204;BME280;7185;51.854;6.622;2023-01-31T13:18:24;101621.03;;;7.23;100.00
14204;BME280;7185;51.854;6.622;2023-01-31T13:20:59;101617.66;;;7.30;100.00
14204;BME280;7185;51.854;6.622;2023-01-31T13:23:35;101611.38;;;7.14;100.00
14204;BME280;7185;51.854;6.622;2023-01-31T13:26:11;101612.41;;;7.27;100.00
14204;BME280;7185;51.854;6.622;2023-01-31T13:28:49;101600.22;;;7.25;100.00
14204;BME280;7185;51.854;6.622;2023-01-31T13:31:26;101601.06;;;7.24;100.00
14204;BME280;7185;51.854;6.622;2023-01-31T13:34:03;101607.19;;;7.27;100.00
14204;BME280;7185;51.854;6.622;2023-01-31T13:36:39;101600.03;;;7.09;100.00
14204;BME280;7185;51.854;6.622;2023-01-31T13:39:13;101600.94;;;7.14;100.00
14204;BME280;7185;51.854;6.622;2023-01-31T13:41:48;101609.75;;;7.23;100.00
14204;BME280;7185;51.854;6.622;2023-01-31T13:44:19;101603.66;;;7.24;100.00
14204;BME280;7185;51.854;6.622;2023-01-31T13:46:55;101602.03;;;7.33;100.00
14204;BME280;7185;51.854;6.622;2023-01-31T13:49:31;101599.25;;;7.16;100.00
14204;BME280;7185;51.854;6.622;2023-01-31T13:52:11;101601.13;;;7.30;100.00
14204;BME280;7185;51.854;6.622;2023-01-31T13:54:49;101602.94;;;7.36;100.00